createdAt,value
2023-01-19T00:00:33.193Z,4.99
2023-01-19T00:02:59.990Z,5.01
2023-01-19T00:05:26.812Z,5.05
2023-01-19T00:07:53.572Z,5.07
2023-01-19T00:10:20.324Z,5.10
2023-01-19T00:12:47.082Z,5.10
2023-01-19T00:15:13.829Z,4.99
2023-01-19T00:17:41.169Z,4.94
2023-01-19T00:20:09.775Z,4.92
2023-01-19T00:22:36.524Z,4.93
2023-01-19T00:25:03.787Z,4.91
2023-01-19T00:27:34.805Z,4.89
2023-01-19T00:30:02.222Z,4.90
2023-01-19T00:32:29.038Z,4.89
2023-01-19T00:34:55.807Z,4.85
2023-01-19T00:37:22.878Z,4.80
2023-01-19T00:39:49.644Z,4.72
2023-01-19T00:42:34.794Z,4.76
2023-01-19T00:45:01.536Z,4.78
2023-01-19T00:47:28.293Z,4.79
2023-01-19T00:49:55.449Z,4.81
2023-01-19T00:52:22.085Z,4.82
2023-01-19T00:54:48.820Z,4.83
2023-01-19T00:57:16.027Z,4.85
2023-01-19T00:59:43.233Z,4.81
2023-01-19T01:02:11.468Z,4.74
2023-01-19T01:04:38.570Z,4.74
2023-01-19T01:07:05.362Z,4.72
2023-01-19T01:09:32.191Z,4.64
2023-01-19T01:11:59.242Z,4.60
2023-01-19T01:14:26.916Z,4.62
2023-01-19T01:16:53.929Z,4.61
2023-01-19T01:19:21.481Z,4.57
2023-01-19T01:21:48.296Z,4.53
2023-01-19T01:24:15.068Z,4.50
2023-01-19T01:26:41.844Z,4.42
2023-01-19T01:29:08.840Z,4.37
2023-01-19T01:31:35.602Z,4.36
2023-01-19T01:34:02.406Z,4.31
2023-01-19T01:36:32.132Z,4.33
2023-01-19T01:38:59.758Z,4.28
2023-01-19T01:41:27.544Z,4.28
2023-01-19T01:43:58.582Z,4.21
2023-01-19T01:46:26.886Z,4.09
2023-01-19T01:49:06.112Z,4.15
2023-01-19T01:51:52.780Z,4.13
2023-01-19T01:54:28.284Z,4.17
2023-01-19T01:56:57.911Z,4.22
2023-01-19T01:59:34.859Z,4.27
2023-01-19T02:02:28.065Z,4.26
2023-01-19T02:04:58.720Z,4.26
2023-01-19T02:08:06.768Z,4.25
2023-01-19T02:10:52.099Z,4.26
2023-01-19T02:13:22.463Z,4.26
2023-01-19T02:15:52.676Z,4.23
2023-01-19T02:18:21.510Z,4.21
2023-01-19T02:20:52.934Z,4.18
2023-01-19T02:23:39.466Z,4.12
2023-01-19T02:26:09.456Z,4.09
2023-01-19T02:28:39.226Z,4.10
2023-01-19T02:31:06.414Z,4.07
2023-01-19T02:33:33.571Z,4.11
2023-01-19T02:36:00.861Z,4.14
2023-01-19T02:38:28.542Z,4.10
2023-01-19T02:40:59.682Z,4.09
2023-01-19T02:43:27.806Z,4.04
2023-01-19T02:45:54.682Z,4.06
2023-01-19T02:48:21.670Z,4.10
2023-01-19T02:51:00.946Z,4.08
2023-01-19T02:53:53.484Z,4.07
2023-01-19T02:57:01.575Z,3.97
2023-01-19T02:59:58.581Z,3.95
2023-01-19T03:02:25.342Z,3.97
2023-01-19T03:05:43.221Z,4.01
2023-01-19T03:08:15.115Z,4.04
2023-01-19T03:10:51.207Z,3.97
2023-01-19T03:13:26.378Z,3.93
2023-01-19T03:15:56.793Z,3.91
2023-01-19T03:18:26.383Z,3.90
2023-01-19T03:20:56.678Z,3.85
2023-01-19T03:23:26.873Z,3.83
2023-01-19T03:25:54.711Z,3.80
2023-01-19T03:28:22.884Z,3.78
2023-01-19T03:30:54.675Z,3.72
2023-01-19T03:33:33.178Z,3.71
2023-01-19T03:36:05.460Z,3.70
2023-01-19T03:38:43.120Z,3.75
2023-01-19T03:41:13.642Z,3.77
2023-01-19T03:43:40.905Z,3.85
2023-01-19T03:46:07.927Z,3.80
2023-01-19T03:48:34.740Z,3.80
2023-01-19T03:51:07.248Z,3.85
2023-01-19T03:53:34.338Z,3.76
2023-01-19T03:56:01.232Z,3.74
2023-01-19T03:58:28.419Z,3.71
2023-01-19T04:00:55.141Z,3.62
2023-01-19T04:03:21.926Z,3.66
2023-01-19T04:05:49.306Z,3.65
2023-01-19T04:08:16.020Z,3.62
2023-01-19T04:10:42.680Z,3.58
2023-01-19T04:13:09.399Z,3.47
2023-01-19T04:15:36.216Z,3.48
2023-01-19T04:18:03.030Z,3.53
2023-01-19T04:20:29.801Z,3.59
2023-01-19T04:23:01.177Z,3.60
2023-01-19T04:25:28.733Z,3.56
2023-01-19T04:27:57.927Z,3.56
2023-01-19T04:30:25.122Z,3.53
2023-01-19T04:32:51.937Z,3.58
2023-01-19T04:35:18.748Z,3.64
2023-01-19T04:37:45.712Z,3.66
2023-01-19T04:40:12.637Z,3.65
2023-01-19T04:42:43.236Z,3.69
2023-01-19T04:45:10.515Z,3.70
2023-01-19T04:47:37.469Z,3.70
2023-01-19T04:50:05.865Z,3.72
2023-01-19T04:52:36.186Z,3.68
2023-01-19T04:55:04.213Z,3.70
2023-01-19T04:57:30.955Z,3.68
2023-01-19T04:59:58.423Z,3.67
2023-01-19T05:02:25.785Z,3.72
2023-01-19T05:04:52.561Z,3.76
2023-01-19T05:07:19.320Z,3.84
2023-01-19T05:09:46.059Z,3.85
2023-01-19T05:12:12.758Z,3.86
2023-01-19T05:14:39.616Z,3.81
2023-01-19T05:17:06.399Z,3.83
2023-01-19T05:19:33.104Z,3.80
2023-01-19T05:21:59.817Z,3.70
2023-01-19T05:24:26.578Z,3.74
2023-01-19T05:26:53.317Z,3.73
2023-01-19T05:29:20.105Z,3.75
2023-01-19T05:31:46.956Z,3.69
2023-01-19T05:34:14.542Z,3.76
2023-01-19T05:36:41.802Z,3.80
2023-01-19T05:39:08.582Z,3.84
2023-01-19T05:41:36.119Z,3.90
2023-01-19T05:44:02.959Z,3.94
2023-01-19T05:46:29.927Z,3.93
2023-01-19T05:48:56.874Z,3.89
2023-01-19T05:51:23.890Z,3.83
2023-01-19T05:53:50.700Z,3.80
2023-01-19T05:56:17.439Z,3.77
2023-01-19T05:58:44.219Z,3.77
2023-01-19T06:01:11.214Z,3.80
2023-01-19T06:03:39.556Z,3.79
2023-01-19T06:06:06.518Z,3.77
2023-01-19T06:08:33.294Z,3.74
2023-01-19T06:11:00.456Z,3.76
2023-01-19T06:13:27.213Z,3.72
2023-01-19T06:16:00.925Z,3.77
2023-01-19T06:18:28.412Z,3.71
2023-01-19T06:20:58.741Z,3.62
2023-01-19T06:23:30.985Z,3.49
2023-01-19T06:25:58.000Z,3.45
2023-01-19T06:28:25.314Z,3.43
2023-01-19T06:30:53.590Z,3.47
2023-01-19T06:33:20.759Z,3.69
2023-01-19T06:35:48.891Z,3.82
2023-01-19T06:38:18.531Z,3.90
2023-01-19T06:40:46.627Z,3.92
2023-01-19T06:43:13.391Z,3.99
2023-01-19T06:45:40.126Z,4.11
2023-01-19T06:48:08.641Z,4.09
2023-01-19T06:50:35.634Z,4.17
2023-01-19T06:53:03.088Z,4.15
2023-01-19T06:55:32.772Z,4.16
2023-01-19T06:58:01.371Z,4.19
2023-01-19T07:00:29.927Z,4.16
2023-01-19T07:02:57.997Z,4.15
2023-01-19T07:05:25.300Z,4.12
2023-01-19T07:07:53.908Z,4.08
2023-01-19T07:10:21.423Z,4.05
2023-01-19T07:12:48.548Z,4.03
2023-01-19T07:15:16.909Z,4.02
2023-01-19T07:17:43.965Z,3.99
2023-01-19T07:20:14.209Z,3.88
2023-01-19T07:22:41.966Z,3.87
2023-01-19T07:25:14.004Z,3.85
2023-01-19T07:27:40.793Z,3.87
2023-01-19T07:30:08.680Z,3.96
2023-01-19T07:32:36.046Z,4.03
2023-01-19T07:35:03.234Z,4.07
2023-01-19T07:37:31.664Z,4.12
2023-01-19T07:39:58.556Z,4.16
2023-01-19T07:42:26.146Z,4.18
2023-01-19T07:44:53.562Z,4.22
2023-01-19T07:47:20.608Z,4.28
2023-01-19T07:49:47.438Z,4.30
2023-01-19T07:52:14.276Z,4.34
2023-01-19T07:54:41.712Z,4.38
2023-01-19T07:57:08.425Z,4.37
2023-01-19T07:59:35.202Z,4.40
2023-01-19T08:02:12.372Z,4.44
2023-01-19T08:04:45.430Z,4.43
2023-01-19T08:07:43.833Z,4.29
2023-01-19T08:10:28.483Z,4.33
2023-01-19T08:12:59.343Z,4.35
2023-01-19T08:15:38.073Z,4.39
2023-01-19T08:18:11.884Z,4.41
2023-01-19T08:20:42.801Z,4.34
2023-01-19T08:23:11.775Z,4.33
2023-01-19T08:26:23.117Z,4.34
2023-01-19T08:29:08.924Z,4.36
2023-01-19T08:31:37.778Z,4.32
2023-01-19T08:34:21.390Z,4.35
2023-01-19T08:37:14.455Z,4.42
2023-01-19T08:39:48.028Z,4.47
2023-01-19T08:42:22.672Z,4.48
2023-01-19T08:44:58.103Z,4.50
2023-01-19T08:47:35.525Z,4.52
2023-01-19T08:50:06.821Z,4.55
2023-01-19T08:52:44.542Z,4.59
2023-01-19T08:55:12.191Z,4.59
2023-01-19T08:57:38.967Z,4.60
2023-01-19T09:00:07.923Z,4.62
2023-01-19T09:02:34.966Z,4.64
2023-01-19T09:05:01.754Z,4.61
2023-01-19T09:07:30.557Z,4.62
2023-01-19T09:09:59.232Z,4.64
2023-01-19T09:12:26.036Z,4.65
2023-01-19T09:14:52.816Z,4.63
2023-01-19T09:17:19.581Z,4.63
2023-01-19T09:19:46.338Z,4.58
2023-01-19T09:22:13.185Z,4.58
2023-01-19T09:24:41.129Z,4.56
2023-01-19T09:27:08.977Z,4.59
2023-01-19T09:29:36.525Z,4.57
2023-01-19T09:32:03.431Z,4.60
2023-01-19T09:34:31.406Z,4.58
2023-01-19T09:36:58.257Z,4.54
2023-01-19T09:39:25.096Z,4.56
2023-01-19T09:42:16.019Z,4.53
2023-01-19T09:44:43.880Z,4.45
2023-01-19T09:47:15.241Z,4.37
2023-01-19T09:49:46.495Z,4.39
2023-01-19T09:52:14.245Z,4.37
2023-01-19T09:54:59.414Z,4.30
2023-01-19T09:57:27.469Z,4.33
2023-01-19T09:59:59.527Z,4.31
2023-01-19T10:02:46.444Z,4.27
2023-01-19T10:05:40.253Z,4.19
2023-01-19T10:08:31.860Z,4.12
2023-01-19T10:10:58.608Z,4.05
2023-01-19T10:13:47.425Z,4.00
2023-01-19T10:16:49.548Z,3.95
2023-01-19T10:19:19.023Z,3.84
2023-01-19T10:21:46.755Z,3.89
2023-01-19T10:24:24.068Z,3.86
2023-01-19T10:26:53.265Z,3.84
2023-01-19T10:29:29.124Z,3.88
2023-01-19T10:32:14.803Z,3.88
2023-01-19T10:34:42.046Z,3.81
2023-01-19T10:37:27.759Z,3.84
2023-01-19T10:40:01.294Z,3.77
2023-01-19T10:42:31.322Z,3.79
2023-01-19T10:44:58.301Z,3.71
2023-01-19T10:47:32.382Z,3.73
2023-01-19T10:49:59.255Z,3.79
2023-01-19T10:52:39.838Z,3.83
2023-01-19T10:56:22.997Z,3.83
2023-01-19T11:21:06.439Z,3.84
2023-01-19T11:23:47.075Z,3.85
2023-01-19T11:26:35.543Z,3.88
2023-01-19T11:29:03.491Z,3.88
2023-01-19T11:31:31.509Z,3.92
2023-01-19T11:34:03.801Z,3.93
2023-01-19T11:36:37.070Z,3.99
2023-01-19T11:39:21.330Z,3.96
2023-01-19T11:41:51.201Z,3.99
2023-01-19T11:44:27.106Z,4.00
2023-01-19T11:46:57.179Z,3.93
2023-01-19T11:49:44.189Z,3.93
2023-01-19T11:52:24.519Z,3.94
2023-01-19T11:54:59.555Z,3.93
2023-01-19T11:57:27.270Z,4.00
2023-01-19T12:00:03.470Z,4.02
2023-01-19T12:02:43.694Z,4.16
2023-01-19T12:05:15.197Z,4.27
2023-01-19T12:07:43.683Z,4.24
2023-01-19T12:10:27.099Z,4.26
2023-01-19T12:12:53.981Z,4.21
2023-01-19T12:15:31.736Z,4.14
2023-01-19T12:18:00.916Z,4.10
2023-01-19T12:20:52.814Z,4.05
2023-01-19T12:23:30.242Z,4.06
2023-01-19T12:26:16.445Z,3.96
2023-01-19T12:28:46.619Z,3.94
2023-01-19T12:31:18.357Z,3.93
2023-01-19T12:33:45.367Z,3.88
2023-01-19T12:36:38.716Z,3.90
2023-01-19T12:39:08.139Z,3.87
2023-01-19T12:41:35.866Z,3.79
2023-01-19T12:44:11.991Z,3.81
2023-01-19T12:46:39.063Z,3.81
2023-01-19T12:49:14.513Z,3.81
2023-01-19T12:51:41.709Z,3.79
2023-01-19T12:54:16.337Z,3.80
2023-01-19T12:56:43.121Z,3.83
2023-01-19T12:59:24.166Z,3.83
2023-01-19T13:02:25.603Z,3.80
2023-01-19T13:05:23.755Z,3.79
2023-01-19T13:08:02.808Z,3.69
2023-01-19T13:11:00.805Z,3.71
2023-01-19T13:13:30.809Z,3.72
2023-01-19T13:16:27.476Z,3.62
2023-01-19T13:19:06.436Z,3.63
2023-01-19T13:21:34.537Z,3.64
2023-01-19T13:24:06.377Z,3.71
2023-01-19T13:26:35.511Z,3.83
2023-01-19T13:29:05.119Z,3.81
2023-01-19T13:31:36.506Z,3.79
2023-01-19T13:34:04.073Z,3.75
2023-01-19T13:36:35.952Z,3.74
2023-01-19T13:39:05.641Z,3.65
2023-01-19T13:41:38.213Z,3.55
2023-01-19T13:44:10.735Z,3.54
2023-01-19T13:46:38.693Z,3.52
2023-01-19T13:49:17.804Z,3.51
2023-01-19T13:51:45.094Z,3.53
2023-01-19T13:54:17.265Z,3.51
2023-01-19T13:56:50.039Z,3.51
2023-01-19T13:59:16.890Z,3.49
2023-01-19T14:01:46.029Z,3.47
2023-01-19T14:04:29.867Z,3.47
2023-01-19T14:06:58.967Z,3.46
2023-01-19T14:09:25.720Z,3.29
2023-01-19T14:12:14.654Z,3.40
2023-01-19T14:14:42.928Z,3.38
2023-01-19T14:17:25.156Z,3.34
2023-01-19T14:19:55.533Z,3.32
2023-01-19T14:22:43.612Z,3.28
2023-01-19T14:25:35.989Z,3.39
2023-01-19T14:28:28.629Z,3.40
2023-01-19T14:31:00.703Z,3.36
2023-01-19T14:33:51.977Z,3.28
2023-01-19T14:36:33.243Z,3.21
2023-01-19T14:39:01.205Z,3.12
2023-01-19T14:41:34.111Z,3.08
2023-01-19T14:44:01.013Z,3.02
2023-01-19T14:46:28.218Z,2.97
2023-01-19T14:49:03.527Z,2.95
2023-01-19T14:51:30.875Z,2.86
2023-01-19T14:53:59.915Z,2.81
2023-01-19T14:56:29.519Z,2.88
2023-01-19T14:58:58.167Z,2.83
2023-01-19T15:01:28.494Z,2.80
2023-01-19T15:03:58.508Z,2.81
2023-01-19T15:06:26.169Z,2.74
2023-01-19T15:08:53.661Z,2.75
2023-01-19T15:11:27.516Z,2.73
2023-01-19T15:13:55.456Z,2.72
2023-01-19T15:16:23.526Z,2.61
2023-01-19T15:18:50.467Z,2.58
2023-01-19T15:21:26.762Z,2.58
2023-01-19T15:23:58.323Z,2.68
2023-01-19T15:26:26.506Z,2.65
2023-01-19T15:28:53.532Z,2.61
2023-01-19T15:31:24.624Z,2.68
2023-01-19T15:33:51.525Z,2.64
2023-01-19T15:36:20.367Z,2.68
2023-01-19T15:38:47.677Z,2.61
2023-01-19T15:41:15.436Z,2.51
2023-01-19T15:43:42.228Z,2.53
2023-01-19T15:46:11.448Z,2.56
2023-01-19T15:48:38.185Z,2.57
2023-01-19T15:51:05.625Z,2.53
2023-01-19T15:53:32.385Z,2.56
2023-01-19T15:55:59.134Z,2.49
2023-01-19T15:58:26.659Z,2.40
2023-01-19T16:00:55.357Z,2.42
2023-01-19T16:03:22.409Z,2.47
2023-01-19T16:05:49.398Z,2.47
2023-01-19T16:08:16.259Z,2.45
2023-01-19T16:10:43.458Z,2.46
2023-01-19T16:13:11.672Z,2.47
2023-01-19T16:15:39.137Z,2.43
2023-01-19T16:18:06.588Z,2.46
2023-01-19T16:20:33.568Z,2.53
2023-01-19T16:23:13.765Z,2.55
2023-01-19T16:25:41.849Z,2.51
2023-01-19T16:28:09.112Z,2.50
2023-01-19T16:30:35.958Z,2.51
2023-01-19T16:33:02.744Z,2.50
2023-01-19T16:35:29.593Z,2.51
2023-01-19T16:37:56.502Z,2.49
2023-01-19T16:40:23.304Z,2.50
2023-01-19T16:42:50.678Z,2.55
2023-01-19T16:45:17.449Z,2.52
2023-01-19T16:47:50.450Z,2.56
2023-01-19T16:50:17.529Z,2.59
2023-01-19T16:52:44.815Z,2.60
2023-01-19T16:55:11.708Z,2.57
2023-01-19T16:57:41.403Z,2.53
2023-01-19T17:00:10.519Z,2.50
2023-01-19T17:02:37.679Z,2.40
2023-01-19T17:05:04.957Z,2.32
2023-01-19T17:07:32.043Z,2.34
2023-01-19T17:10:00.025Z,2.36
2023-01-19T17:12:28.058Z,2.34
2023-01-19T17:14:55.040Z,2.34
2023-01-19T17:17:22.125Z,2.33
2023-01-19T17:19:48.985Z,2.25
2023-01-19T17:22:15.677Z,2.32
2023-01-19T17:24:43.313Z,2.35
2023-01-19T17:27:10.361Z,2.27
2023-01-19T17:29:37.345Z,2.28
2023-01-19T17:32:04.533Z,2.26
2023-01-19T17:34:32.010Z,2.29
2023-01-19T17:37:03.044Z,2.32
2023-01-19T17:39:30.074Z,2.31
2023-01-19T17:41:57.097Z,2.30
2023-01-19T17:44:24.088Z,2.27
2023-01-19T17:46:51.044Z,2.23
2023-01-19T17:49:21.448Z,2.27
2023-01-19T17:51:53.537Z,2.23
2023-01-19T17:54:20.701Z,2.31
2023-01-19T17:56:47.763Z,2.26
2023-01-19T17:59:14.753Z,2.28
2023-01-19T18:01:42.870Z,2.25
2023-01-19T18:04:10.206Z,2.25
2023-01-19T18:06:37.976Z,2.21
2023-01-19T18:09:07.315Z,2.20
2023-01-19T18:11:34.795Z,2.22
2023-01-19T18:14:02.167Z,2.19
2023-01-19T18:16:30.151Z,2.24
2023-01-19T18:18:58.303Z,2.24
2023-01-19T18:21:28.215Z,2.26
2023-01-19T18:24:12.934Z,2.21
2023-01-19T18:26:39.983Z,2.22
2023-01-19T18:29:06.974Z,2.17
2023-01-19T18:31:34.031Z,2.24
2023-01-19T18:34:01.064Z,2.10
2023-01-19T18:36:28.418Z,2.09
2023-01-19T18:38:55.519Z,2.10
2023-01-19T18:41:22.617Z,2.07
2023-01-19T18:43:49.726Z,2.07
2023-01-19T18:46:16.844Z,2.06
2023-01-19T18:48:43.819Z,2.04
2023-01-19T18:51:13.072Z,2.03
2023-01-19T18:53:40.376Z,1.94
2023-01-19T18:56:07.968Z,1.92
2023-01-19T18:58:37.293Z,1.88
2023-01-19T19:01:05.006Z,1.90
2023-01-19T19:03:32.107Z,1.92
2023-01-19T19:06:03.428Z,1.97
2023-01-19T19:08:30.617Z,1.95
2023-01-19T19:10:57.583Z,1.96
2023-01-19T19:13:25.345Z,1.90
2023-01-19T19:15:52.676Z,1.91
2023-01-19T19:18:19.928Z,1.86
2023-01-19T19:20:47.009Z,1.81
2023-01-19T19:23:13.887Z,1.85
2023-01-19T19:25:40.870Z,1.82
2023-01-19T19:28:08.588Z,1.83
2023-01-19T19:30:37.930Z,1.87
2023-01-19T19:33:05.129Z,1.85
2023-01-19T19:35:32.112Z,1.83
2023-01-19T19:37:59.557Z,1.77
2023-01-19T19:40:27.714Z,1.72
2023-01-19T19:42:55.837Z,1.74
2023-01-19T19:45:24.803Z,1.71
2023-01-19T19:47:51.745Z,1.72
2023-01-19T19:50:19.252Z,1.65
2023-01-19T19:52:46.325Z,1.67
2023-01-19T19:55:13.650Z,1.69
2023-01-19T19:57:40.831Z,1.68
2023-01-19T20:00:08.800Z,1.69
2023-01-19T20:02:36.619Z,1.63
2023-01-19T20:05:04.545Z,1.61
2023-01-19T20:07:31.778Z,1.59
2023-01-19T20:09:58.950Z,1.58
2023-01-19T20:12:26.017Z,1.52
2023-01-19T20:14:53.185Z,1.54
2023-01-19T20:17:20.787Z,1.56
2023-01-19T20:19:49.020Z,1.52
2023-01-19T20:22:16.331Z,1.56
2023-01-19T20:24:43.039Z,1.57
2023-01-19T20:27:10.244Z,1.59
2023-01-19T20:29:37.308Z,1.56
2023-01-19T20:32:04.117Z,1.57
2023-01-19T20:34:33.322Z,1.59
2023-01-19T20:37:01.753Z,1.59
2023-01-19T20:39:33.084Z,1.55
2023-01-19T20:42:00.758Z,1.55
2023-01-19T20:44:27.811Z,1.56
2023-01-19T20:46:55.269Z,1.62
2023-01-19T20:49:22.703Z,1.60
2023-01-19T20:51:51.903Z,1.57
2023-01-19T20:54:26.832Z,1.61
2023-01-19T20:56:54.107Z,1.58
2023-01-19T20:59:21.353Z,1.66
2023-01-19T21:01:48.951Z,1.61
2023-01-19T21:04:17.512Z,1.65
2023-01-19T21:06:44.569Z,1.73
2023-01-19T21:09:11.449Z,1.80
2023-01-19T21:11:39.664Z,1.78
2023-01-19T21:14:07.144Z,1.79
2023-01-19T21:16:36.363Z,1.77
2023-01-19T21:19:04.481Z,1.73
2023-01-19T21:21:32.871Z,1.78
2023-01-19T21:24:02.789Z,1.79
2023-01-19T21:26:30.290Z,1.69
2023-01-19T21:29:01.252Z,1.76
2023-01-19T21:31:28.474Z,1.77
2023-01-19T21:33:56.504Z,1.74
2023-01-19T21:36:24.575Z,1.77
2023-01-19T21:38:52.314Z,1.73
2023-01-19T21:41:19.162Z,1.75
2023-01-19T21:43:46.171Z,1.78
2023-01-19T21:46:30.433Z,1.77
2023-01-19T21:48:58.132Z,1.68
2023-01-19T21:51:24.978Z,1.71
2023-01-19T21:53:59.378Z,1.77
2023-01-19T21:56:28.103Z,1.81
2023-01-19T21:58:56.211Z,1.85
2023-01-19T22:01:26.318Z,1.86
2023-01-19T22:03:54.720Z,1.86
2023-01-19T22:06:22.115Z,1.82
2023-01-19T22:08:48.938Z,1.70
2023-01-19T22:11:18.765Z,1.74
2023-01-19T22:13:45.680Z,1.81
2023-01-19T22:16:14.432Z,1.90
2023-01-19T22:18:43.400Z,1.84
2023-01-19T22:21:36.216Z,1.90
2023-01-19T22:24:04.256Z,1.92
2023-01-19T22:26:33.929Z,1.95
2023-01-19T22:29:01.606Z,1.99
2023-01-19T22:31:29.423Z,1.97
2023-01-19T22:33:56.760Z,2.00
2023-01-19T22:36:31.869Z,2.02
2023-01-19T22:39:00.605Z,2.06
2023-01-19T22:41:32.867Z,2.05
2023-01-19T22:44:01.773Z,2.08
2023-01-19T22:46:31.201Z,2.06
2023-01-19T22:48:58.921Z,2.08
2023-01-19T22:51:26.367Z,2.09
2023-01-19T22:53:53.260Z,2.09
2023-01-19T22:56:22.138Z,2.02
2023-01-19T22:58:49.364Z,1.95
2023-01-19T23:01:20.317Z,1.84
2023-01-19T23:03:47.372Z,1.72
2023-01-19T23:06:19.721Z,1.61
2023-01-19T23:08:46.544Z,1.49
2023-01-19T23:11:18.290Z,1.34
2023-01-19T23:13:45.484Z,1.21
2023-01-19T23:16:13.112Z,1.09
2023-01-19T23:18:40.786Z,1.07
2023-01-19T23:21:13.125Z,1.00
2023-01-19T23:23:40.174Z,0.88
2023-01-19T23:26:13.003Z,0.81
2023-01-19T23:28:40.015Z,0.70
2023-01-19T23:31:36.522Z,0.68
2023-01-19T23:34:05.733Z,0.65
2023-01-19T23:36:34.537Z,0.66
2023-01-19T23:39:06.635Z,0.65
2023-01-19T23:41:36.488Z,0.66
2023-01-19T23:44:03.544Z,0.62
2023-01-19T23:46:30.487Z,0.67
2023-01-19T23:48:57.482Z,0.78
2023-01-19T23:51:26.935Z,0.85
2023-01-19T23:53:53.909Z,0.96
2023-01-19T23:56:25.652Z,1.05
2023-01-19T23:59:03.947Z,1.13
